createdAt,value
2022-10-20T00:01:54.759Z,8.67
2022-10-20T00:04:26.924Z,8.63
2022-10-20T00:06:59.150Z,8.59
2022-10-20T00:09:31.042Z,8.67
2022-10-20T00:12:03.008Z,8.67
2022-10-20T00:14:34.988Z,8.67
2022-10-20T00:17:06.970Z,8.64
2022-10-20T00:19:38.773Z,8.52
2022-10-20T00:22:10.935Z,8.59
2022-10-20T00:24:42.886Z,8.56
2022-10-20T00:27:14.965Z,8.53
2022-10-20T00:29:48.905Z,8.53
2022-10-20T00:32:21.805Z,8.51
2022-10-20T00:34:53.914Z,8.51
2022-10-20T00:37:26.438Z,8.47
2022-10-20T00:39:58.329Z,8.46
2022-10-20T00:42:30.311Z,8.45
2022-10-20T00:45:03.491Z,8.46
2022-10-20T00:47:42.109Z,8.26
2022-10-20T00:50:17.500Z,8.43
2022-10-20T00:52:50.450Z,8.40
2022-10-20T00:55:26.443Z,8.37
2022-10-20T00:58:01.134Z,8.38
2022-10-20T01:00:33.831Z,8.37
2022-10-20T01:03:08.749Z,8.36
2022-10-20T01:05:40.713Z,8.33
2022-10-20T01:08:12.817Z,8.33
2022-10-20T01:10:53.278Z,8.30
2022-10-20T01:13:37.995Z,8.29
2022-10-20T01:16:17.860Z,8.28
2022-10-20T01:19:02.003Z,8.26
2022-10-20T01:22:09.988Z,8.24
2022-10-20T01:24:55.789Z,8.20
2022-10-20T01:27:34.725Z,8.00
2022-10-20T01:30:13.727Z,8.14
2022-10-20T01:32:56.253Z,8.12
2022-10-20T01:35:39.369Z,8.08
2022-10-20T01:38:22.313Z,8.06
2022-10-20T01:41:00.964Z,8.04
2022-10-20T01:43:36.562Z,8.04
2022-10-20T01:46:11.413Z,8.03
2022-10-20T01:48:43.927Z,8.00
2022-10-20T01:51:16.679Z,7.97
2022-10-20T01:53:48.623Z,7.98
2022-10-20T01:56:27.441Z,7.95
2022-10-20T01:59:20.157Z,7.94
2022-10-20T02:02:12.915Z,7.89
2022-10-20T02:04:55.009Z,7.89
2022-10-20T02:07:30.583Z,7.86
2022-10-20T02:10:10.865Z,7.84
2022-10-20T02:12:46.643Z,7.82
2022-10-20T02:15:24.464Z,7.79
2022-10-20T02:18:01.044Z,7.78
2022-10-20T02:20:35.664Z,7.77
2022-10-20T02:23:07.886Z,7.76
2022-10-20T02:25:41.608Z,7.74
2022-10-20T02:28:15.952Z,7.72
2022-10-20T02:30:48.926Z,7.75
2022-10-20T02:33:22.032Z,7.74
2022-10-20T02:36:00.166Z,7.76
2022-10-20T02:38:32.268Z,7.64
2022-10-20T02:41:04.368Z,7.72
2022-10-20T02:43:36.903Z,7.71
2022-10-20T02:46:09.100Z,7.71
2022-10-20T02:48:41.283Z,7.68
2022-10-20T02:51:13.378Z,7.68
2022-10-20T02:53:46.490Z,7.69
2022-10-20T02:56:18.840Z,7.59
2022-10-20T02:58:51.205Z,7.67
2022-10-20T03:01:24.947Z,7.59
2022-10-20T03:03:59.872Z,7.70
2022-10-20T03:06:31.920Z,7.71
2022-10-20T03:09:03.929Z,7.72
2022-10-20T03:11:35.966Z,7.71
2022-10-20T03:14:08.388Z,7.71
2022-10-20T03:16:40.654Z,7.68
2022-10-20T03:19:12.559Z,7.71
2022-10-20T03:21:44.684Z,7.69
2022-10-20T03:24:16.741Z,7.68
2022-10-20T03:26:48.947Z,7.68
2022-10-20T03:29:21.051Z,7.69
2022-10-20T03:31:52.877Z,7.68
2022-10-20T03:34:25.504Z,7.65
2022-10-20T03:36:57.364Z,7.66
2022-10-20T03:39:30.169Z,7.66
2022-10-20T03:42:02.197Z,7.56
2022-10-20T03:44:34.635Z,7.65
2022-10-20T03:47:06.650Z,7.66
2022-10-20T03:49:38.523Z,7.65
2022-10-20T03:52:10.533Z,7.66
2022-10-20T03:54:42.549Z,7.63
2022-10-20T03:57:14.343Z,7.65
2022-10-20T03:59:46.513Z,7.65
2022-10-20T04:02:31.141Z,7.67
2022-10-20T04:05:03.260Z,7.68
2022-10-20T04:07:35.347Z,7.69
2022-10-20T04:10:08.657Z,7.68
2022-10-20T04:12:40.687Z,7.69
2022-10-20T04:15:13.589Z,7.69
2022-10-20T04:17:45.453Z,7.67
2022-10-20T04:20:18.361Z,7.68
2022-10-20T04:22:50.499Z,7.66
2022-10-20T04:25:22.833Z,7.67
2022-10-20T04:27:54.746Z,7.66
2022-10-20T04:30:26.709Z,7.65
2022-10-20T04:32:58.644Z,7.66
2022-10-20T04:35:30.508Z,7.65
2022-10-20T04:38:02.403Z,7.63
2022-10-20T04:40:34.549Z,7.61
2022-10-20T04:43:07.005Z,7.61
2022-10-20T04:45:39.578Z,7.59
2022-10-20T04:48:11.765Z,7.56
2022-10-20T04:50:43.773Z,7.56
2022-10-20T04:53:17.172Z,7.54
2022-10-20T04:55:56.890Z,7.53
2022-10-20T04:58:28.905Z,7.51
2022-10-20T05:01:05.107Z,7.50
2022-10-20T05:03:37.919Z,7.47
2022-10-20T05:06:15.401Z,7.41
2022-10-20T05:08:51.604Z,7.41
2022-10-20T05:11:26.473Z,7.37
2022-10-20T05:13:58.888Z,7.35
2022-10-20T05:16:31.230Z,7.36
2022-10-20T05:19:03.115Z,7.35
2022-10-20T05:21:35.168Z,7.29
2022-10-20T05:24:08.362Z,7.28
2022-10-20T05:26:40.256Z,7.28
2022-10-20T05:29:13.670Z,7.28
2022-10-20T05:31:46.402Z,7.28
2022-10-20T05:34:18.272Z,7.27
2022-10-20T05:36:53.353Z,7.26
2022-10-20T05:39:25.408Z,7.26
2022-10-20T05:41:57.346Z,7.29
2022-10-20T05:44:29.457Z,7.28
2022-10-20T05:47:02.540Z,7.27
2022-10-20T05:49:34.890Z,7.29
2022-10-20T05:52:07.261Z,7.30
2022-10-20T05:54:39.196Z,7.29
2022-10-20T05:57:11.177Z,7.32
2022-10-20T05:59:45.076Z,7.31
2022-10-20T06:02:17.056Z,7.32
2022-10-20T06:04:49.047Z,7.31
2022-10-20T06:07:20.997Z,7.32
2022-10-20T06:09:53.435Z,7.32
2022-10-20T06:12:25.854Z,7.34
2022-10-20T06:14:57.891Z,7.36
2022-10-20T06:17:30.144Z,7.39
2022-10-20T06:20:02.497Z,7.38
2022-10-20T06:22:34.725Z,7.39
2022-10-20T06:25:08.916Z,7.41
2022-10-20T06:27:42.530Z,7.43
2022-10-20T06:30:14.847Z,7.43
2022-10-20T06:32:46.933Z,7.44
2022-10-20T06:35:19.022Z,7.45
2022-10-20T06:37:50.955Z,7.49
2022-10-20T06:40:23.110Z,7.50
2022-10-20T06:45:28.505Z,7.54
2022-10-20T06:48:00.735Z,7.58
2022-10-20T06:50:34.048Z,7.59
2022-10-20T06:53:07.898Z,7.62
2022-10-20T06:55:39.981Z,7.66
2022-10-20T06:58:12.472Z,7.71
2022-10-20T07:00:44.412Z,7.72
2022-10-20T07:03:16.606Z,7.77
2022-10-20T07:05:50.109Z,7.68
2022-10-20T07:08:22.049Z,7.83
2022-10-20T07:11:02.784Z,7.85
2022-10-20T07:13:35.922Z,7.90
2022-10-20T07:16:09.915Z,7.98
2022-10-20T07:18:45.476Z,8.03
2022-10-20T07:21:19.044Z,8.05
2022-10-20T07:23:51.894Z,8.10
2022-10-20T07:26:25.849Z,8.18
2022-10-20T07:29:00.940Z,8.22
2022-10-20T07:31:34.509Z,8.24
2022-10-20T07:34:23.815Z,8.20
2022-10-20T07:36:58.651Z,8.34
2022-10-20T07:39:30.838Z,8.45
2022-10-20T07:42:02.756Z,8.42
2022-10-20T07:44:35.124Z,8.54
2022-10-20T07:47:07.317Z,8.56
2022-10-20T07:49:44.235Z,8.59
2022-10-20T07:52:17.099Z,8.77
2022-10-20T07:54:49.257Z,8.85
2022-10-20T07:57:21.132Z,8.88
2022-10-20T07:59:53.298Z,8.97
2022-10-20T08:02:25.214Z,9.03
2022-10-20T08:04:57.478Z,9.11
2022-10-20T08:07:29.401Z,9.25
2022-10-20T08:10:01.680Z,9.36
2022-10-20T08:12:34.074Z,9.41
2022-10-20T08:15:11.497Z,9.52
2022-10-20T08:17:46.206Z,9.59
2022-10-20T08:20:27.511Z,9.60
2022-10-20T08:22:59.349Z,9.66
2022-10-20T08:25:31.672Z,9.88
2022-10-20T08:28:04.006Z,9.87
2022-10-20T08:30:36.082Z,9.94
2022-10-20T08:33:07.979Z,10.11
2022-10-20T08:35:39.969Z,10.19
2022-10-20T08:38:11.840Z,10.30
2022-10-20T08:40:45.532Z,10.37
2022-10-20T08:43:21.309Z,10.47
2022-10-20T08:45:53.621Z,10.47
2022-10-20T08:48:28.747Z,10.61
2022-10-20T08:51:01.616Z,10.77
2022-10-20T08:53:40.796Z,10.89
2022-10-20T08:56:15.513Z,10.99
2022-10-20T08:58:46.491Z,10.90
2022-10-20T09:01:23.340Z,10.98
2022-10-20T09:04:00.719Z,11.14
2022-10-20T09:06:33.043Z,11.23
2022-10-20T09:09:05.162Z,11.29
2022-10-20T09:11:41.291Z,11.27
2022-10-20T09:14:13.513Z,11.42
2022-10-20T09:16:59.917Z,11.37
2022-10-20T09:19:32.741Z,11.45
2022-10-20T09:22:08.119Z,11.57
2022-10-20T09:24:40.881Z,11.46
2022-10-20T09:27:25.733Z,11.62
2022-10-20T09:29:57.813Z,11.69
2022-10-20T09:32:52.919Z,11.70
2022-10-20T09:35:31.050Z,11.97
2022-10-20T09:38:15.378Z,12.14
2022-10-20T09:40:55.983Z,12.17
2022-10-20T09:43:29.087Z,12.23
2022-10-20T09:46:09.917Z,12.39
2022-10-20T09:48:47.222Z,12.55
2022-10-20T09:51:22.403Z,12.68
2022-10-20T09:54:02.906Z,12.70
2022-10-20T09:56:36.961Z,12.79
2022-10-20T09:59:19.843Z,12.88
2022-10-20T10:02:00.082Z,12.99
2022-10-20T10:04:37.789Z,13.09
2022-10-20T10:07:32.322Z,13.11
2022-10-20T10:10:08.541Z,13.13
2022-10-20T10:12:40.955Z,13.12
2022-10-20T10:15:32.331Z,13.23
2022-10-20T10:18:15.853Z,13.25
2022-10-20T10:20:47.825Z,13.32
2022-10-20T10:23:24.018Z,13.36
2022-10-20T10:25:59.320Z,13.41
2022-10-20T10:28:41.977Z,13.58
2022-10-20T10:31:25.399Z,13.55
2022-10-20T10:34:21.359Z,13.65
2022-10-20T10:36:53.317Z,13.81
2022-10-20T10:39:25.333Z,13.80
2022-10-20T10:42:09.180Z,13.84
2022-10-20T10:44:53.810Z,13.88
2022-10-20T10:47:43.105Z,14.03
2022-10-20T10:50:30.793Z,14.04
2022-10-20T10:53:13.938Z,14.23
2022-10-20T10:55:53.889Z,14.28
2022-10-20T10:58:36.968Z,14.28
2022-10-20T11:01:22.899Z,14.33
2022-10-20T11:04:16.905Z,14.50
2022-10-20T11:06:58.021Z,14.55
2022-10-20T11:09:38.157Z,14.60
2022-10-20T11:12:28.400Z,14.62
2022-10-20T11:15:19.582Z,14.70
2022-10-20T11:18:05.111Z,14.79
2022-10-20T11:20:44.034Z,14.77
2022-10-20T11:26:20.008Z,14.99
2022-10-20T11:28:55.336Z,14.95
2022-10-20T11:31:35.381Z,14.78
2022-10-20T11:34:13.901Z,14.94
2022-10-20T11:36:48.744Z,14.89
2022-10-20T11:39:29.566Z,15.01
2022-10-20T11:42:14.242Z,15.00
2022-10-20T11:44:48.935Z,14.99
2022-10-20T11:47:25.598Z,14.96
2022-10-20T11:49:57.774Z,15.02
2022-10-20T11:52:59.098Z,15.02
2022-10-20T11:55:50.815Z,15.12
2022-10-20T11:58:53.962Z,15.10
2022-10-20T12:01:36.558Z,14.99
2022-10-20T12:04:41.219Z,15.08
2022-10-20T12:07:32.670Z,15.08
2022-10-20T12:10:29.695Z,15.15
2022-10-20T12:13:18.150Z,15.18
2022-10-20T12:15:52.954Z,15.10
2022-10-20T12:18:30.296Z,15.13
2022-10-20T12:21:05.429Z,15.31
2022-10-20T12:24:02.359Z,15.26
2022-10-20T12:27:06.188Z,15.27
2022-10-20T12:30:07.446Z,15.22
2022-10-20T12:33:17.494Z,15.18
2022-10-20T12:36:14.799Z,15.13
2022-10-20T12:38:48.556Z,15.16
2022-10-20T12:41:30.226Z,15.24
2022-10-20T12:44:05.820Z,15.21
2022-10-20T12:46:44.128Z,15.03
2022-10-20T12:49:28.424Z,15.08
2022-10-20T12:52:02.183Z,15.07
2022-10-20T12:54:39.115Z,15.12
2022-10-20T12:57:31.747Z,15.00
2022-10-20T13:00:05.735Z,14.89
2022-10-20T13:02:51.795Z,14.97
2022-10-20T13:05:45.843Z,15.04
2022-10-20T13:08:25.205Z,15.06
2022-10-20T13:11:18.686Z,14.90
2022-10-20T13:14:07.002Z,14.95
2022-10-20T13:16:40.145Z,14.98
2022-10-20T13:19:19.745Z,14.99
2022-10-20T13:21:52.518Z,15.02
2022-10-20T13:24:30.936Z,14.90
2022-10-20T13:27:10.093Z,14.98
2022-10-20T13:29:43.883Z,14.86
2022-10-20T13:32:23.375Z,14.85
2022-10-20T13:35:02.726Z,14.91
2022-10-20T13:37:49.059Z,14.84
2022-10-20T13:40:30.972Z,14.75
2022-10-20T13:43:19.822Z,14.63
2022-10-20T13:46:13.223Z,14.65
2022-10-20T13:48:59.418Z,14.69
2022-10-20T13:51:35.133Z,14.70
2022-10-20T13:54:08.514Z,14.73
2022-10-20T13:56:47.387Z,14.76
2022-10-20T13:59:27.482Z,14.82
2022-10-20T14:02:03.875Z,14.78
2022-10-20T14:04:37.993Z,14.80
2022-10-20T14:07:16.066Z,14.96
2022-10-20T14:09:57.640Z,15.07
2022-10-20T14:12:29.802Z,14.98
2022-10-20T14:15:02.759Z,14.95
2022-10-20T14:17:38.489Z,14.85
2022-10-20T14:20:22.199Z,15.01
2022-10-20T14:22:55.110Z,14.81
2022-10-20T14:25:28.779Z,14.73
2022-10-20T14:28:05.223Z,14.50
2022-10-20T14:30:45.303Z,14.38
2022-10-20T14:33:24.043Z,14.34
2022-10-20T14:35:58.896Z,14.20
2022-10-20T14:38:35.557Z,14.11
2022-10-20T14:41:09.723Z,14.16
2022-10-20T14:43:44.571Z,13.96
2022-10-20T14:46:24.307Z,13.94
2022-10-20T14:48:56.702Z,13.79
2022-10-20T14:51:37.297Z,13.83
2022-10-20T14:54:28.324Z,13.78
2022-10-20T14:57:02.013Z,13.71
2022-10-20T14:59:38.488Z,13.74
2022-10-20T15:02:18.343Z,13.68
2022-10-20T15:04:52.038Z,13.55
2022-10-20T15:07:28.133Z,13.52
2022-10-20T15:10:07.483Z,13.54
2022-10-20T15:12:45.783Z,13.49
2022-10-20T15:15:24.960Z,13.29
2022-10-20T15:18:15.077Z,13.43
2022-10-20T15:20:47.941Z,13.42
2022-10-20T15:23:21.436Z,13.31
2022-10-20T15:25:57.074Z,13.23
2022-10-20T15:28:45.035Z,13.20
2022-10-20T15:31:23.876Z,13.14
2022-10-20T15:33:57.035Z,13.11
2022-10-20T15:36:33.726Z,13.05
2022-10-20T15:39:06.705Z,13.01
2022-10-20T15:41:39.530Z,12.94
2022-10-20T15:44:16.934Z,12.89
2022-10-20T15:46:50.805Z,12.80
2022-10-20T15:49:23.966Z,12.79
2022-10-20T15:51:56.522Z,12.76
2022-10-20T15:54:28.710Z,12.68
2022-10-20T15:57:00.763Z,12.63
2022-10-20T15:59:32.761Z,12.58
2022-10-20T16:02:04.795Z,12.45
2022-10-20T16:04:36.985Z,12.49
2022-10-20T16:07:09.254Z,12.46
2022-10-20T16:09:41.477Z,12.39
2022-10-20T16:12:13.761Z,12.32
2022-10-20T16:14:45.970Z,12.26
2022-10-20T16:17:18.278Z,12.19
2022-10-20T16:19:50.475Z,12.06
2022-10-20T16:22:23.134Z,12.08
2022-10-20T16:24:56.481Z,11.99
2022-10-20T16:27:28.878Z,11.96
2022-10-20T16:30:01.271Z,11.90
2022-10-20T16:32:35.351Z,11.85
2022-10-20T16:35:09.115Z,11.80
2022-10-20T16:37:41.324Z,11.75
2022-10-20T16:40:19.550Z,11.72
2022-10-20T16:42:51.634Z,11.66
2022-10-20T16:48:00.932Z,11.48
2022-10-20T16:50:33.385Z,11.50
2022-10-20T16:53:05.808Z,11.45
2022-10-20T16:55:37.853Z,11.43
2022-10-20T16:58:09.865Z,11.38
2022-10-20T17:00:43.260Z,11.34
2022-10-20T17:03:20.121Z,11.28
2022-10-20T17:05:58.585Z,11.26
2022-10-20T17:08:32.540Z,11.21
2022-10-20T17:11:07.898Z,11.17
2022-10-20T17:13:41.501Z,11.12
2022-10-20T17:16:16.053Z,11.09
2022-10-20T17:18:48.672Z,11.05
2022-10-20T17:21:21.041Z,11.01
2022-10-20T17:23:53.311Z,10.97
2022-10-20T17:26:27.456Z,10.93
2022-10-20T17:29:01.363Z,10.80
2022-10-20T17:31:36.499Z,10.86
2022-10-20T17:34:09.915Z,10.80
2022-10-20T17:36:43.600Z,10.76
2022-10-20T17:39:18.097Z,10.73
2022-10-20T17:41:50.563Z,10.73
2022-10-20T17:44:22.671Z,10.70
2022-10-20T17:46:55.206Z,10.72
2022-10-20T17:49:28.029Z,10.69
2022-10-20T17:51:59.979Z,10.66
2022-10-20T17:54:32.141Z,10.73
2022-10-20T17:57:04.230Z,10.71
2022-10-20T17:59:47.292Z,10.69
2022-10-20T18:02:25.520Z,10.62
2022-10-20T18:04:57.545Z,10.66
2022-10-20T18:07:29.912Z,10.65
2022-10-20T18:10:02.760Z,10.63
2022-10-20T18:12:35.507Z,10.59
2022-10-20T18:15:08.934Z,10.50
2022-10-20T18:17:41.371Z,10.57
2022-10-20T18:20:13.917Z,10.61
2022-10-20T18:22:46.371Z,10.57
2022-10-20T18:25:18.873Z,10.57
2022-10-20T18:27:51.012Z,10.56
2022-10-20T18:30:23.227Z,10.52
2022-10-20T18:32:55.230Z,10.50
2022-10-20T18:35:28.210Z,10.50
2022-10-20T18:38:00.271Z,10.48
2022-10-20T18:40:32.716Z,10.42
2022-10-20T18:43:04.847Z,10.41
2022-10-20T18:45:37.107Z,10.42
2022-10-20T18:48:09.972Z,10.42
2022-10-20T18:50:43.924Z,10.32
2022-10-20T18:53:16.284Z,10.34
2022-10-20T18:55:48.392Z,10.39
2022-10-20T18:58:20.431Z,10.40
2022-10-20T19:01:01.667Z,10.36
2022-10-20T19:03:34.577Z,10.41
2022-10-20T19:06:08.703Z,10.40
2022-10-20T19:08:41.922Z,10.42
2022-10-20T19:11:16.891Z,10.38
2022-10-20T19:13:49.500Z,10.42
2022-10-20T19:16:23.796Z,10.40
2022-10-20T19:18:57.879Z,10.35
2022-10-20T19:21:31.564Z,10.36
2022-10-20T19:24:06.203Z,10.36
2022-10-20T19:26:40.388Z,10.32
2022-10-20T19:29:14.099Z,10.34
2022-10-20T19:31:48.811Z,10.35
2022-10-20T19:34:23.360Z,10.35
2022-10-20T19:36:56.966Z,10.34
2022-10-20T19:39:32.221Z,10.32
2022-10-20T19:42:07.110Z,10.31
2022-10-20T19:44:39.920Z,10.33
2022-10-20T19:47:12.855Z,10.32
2022-10-20T19:49:45.425Z,10.19
2022-10-20T19:52:19.179Z,10.24
2022-10-20T19:54:51.438Z,10.29
2022-10-20T19:57:29.489Z,10.25
2022-10-20T20:00:03.721Z,10.24
2022-10-20T20:02:39.655Z,10.23
2022-10-20T20:05:13.618Z,10.22
2022-10-20T20:07:48.119Z,10.18
2022-10-20T20:10:27.154Z,10.18
2022-10-20T20:13:01.950Z,10.27
2022-10-20T20:15:37.427Z,10.24
2022-10-20T20:18:12.243Z,10.23
2022-10-20T20:20:46.860Z,10.21
2022-10-20T20:23:29.801Z,10.21
2022-10-20T20:26:10.411Z,10.22
2022-10-20T20:28:44.790Z,10.19
2022-10-20T20:31:17.633Z,10.21
2022-10-20T20:33:50.615Z,10.17
2022-10-20T20:36:23.041Z,10.14
2022-10-20T20:38:57.376Z,10.05
2022-10-20T20:41:31.911Z,9.92
2022-10-20T20:44:08.010Z,10.04
2022-10-20T20:46:41.161Z,10.09
2022-10-20T20:49:14.198Z,10.11
2022-10-20T20:51:46.751Z,10.05
2022-10-20T20:54:19.338Z,10.14
2022-10-20T20:56:51.522Z,10.15
2022-10-20T20:59:23.550Z,10.13
2022-10-20T21:01:55.538Z,9.99
2022-10-20T21:04:30.658Z,10.07
2022-10-20T21:07:03.241Z,9.94
2022-10-20T21:09:35.901Z,10.10
2022-10-20T21:12:08.254Z,10.15
2022-10-20T21:14:40.267Z,10.06
2022-10-20T21:17:12.549Z,10.17
2022-10-20T21:19:44.580Z,10.16
2022-10-20T21:22:17.032Z,10.15
2022-10-20T21:24:49.105Z,10.07
2022-10-20T21:27:21.091Z,10.10
2022-10-20T21:29:53.157Z,10.15
2022-10-20T21:32:27.351Z,10.16
2022-10-20T21:34:59.485Z,10.15
2022-10-20T21:37:31.998Z,10.16
2022-10-20T21:40:04.151Z,10.14
2022-10-20T21:42:36.699Z,10.01
2022-10-20T21:45:10.037Z,10.08
2022-10-20T21:47:43.851Z,10.13
2022-10-20T21:50:16.038Z,9.97
2022-10-20T21:52:51.967Z,10.02
2022-10-20T21:55:24.309Z,10.05
2022-10-20T21:57:56.484Z,10.02
2022-10-20T22:00:28.514Z,10.04
2022-10-20T22:03:00.462Z,10.05
2022-10-20T22:05:32.542Z,10.06
2022-10-20T22:08:04.513Z,10.05
2022-10-20T22:10:38.903Z,10.07
2022-10-20T22:13:11.066Z,10.09
2022-10-20T22:15:43.093Z,10.08
2022-10-20T22:18:15.395Z,10.08
2022-10-20T22:20:47.429Z,10.03
2022-10-20T22:23:19.666Z,10.09
2022-10-20T22:25:55.420Z,10.08
2022-10-20T22:28:27.451Z,10.05
2022-10-20T22:33:38.093Z,10.02
2022-10-20T22:36:11.008Z,10.01
2022-10-20T22:38:42.901Z,10.00
2022-10-20T22:41:15.372Z,9.98
2022-10-20T22:43:47.490Z,9.94
2022-10-20T22:46:19.862Z,9.91
2022-10-20T22:48:51.948Z,9.93
2022-10-20T22:51:24.215Z,9.89
2022-10-20T22:53:56.429Z,9.90
2022-10-20T22:56:28.427Z,9.89
2022-10-20T22:59:00.793Z,9.87
2022-10-20T23:01:32.915Z,9.86
2022-10-20T23:04:04.948Z,9.85
2022-10-20T23:06:37.215Z,9.88
2022-10-20T23:09:10.751Z,9.89
2022-10-20T23:11:42.844Z,9.83
2022-10-20T23:14:16.894Z,9.90
2022-10-20T23:16:49.599Z,9.87
2022-10-20T23:19:21.734Z,9.83
2022-10-20T23:21:54.201Z,9.81
2022-10-20T23:24:26.394Z,9.82
2022-10-20T23:26:58.852Z,9.74
2022-10-20T23:29:31.054Z,9.82
2022-10-20T23:32:03.315Z,9.74
2022-10-20T23:34:35.480Z,9.77
2022-10-20T23:37:07.686Z,9.79
2022-10-20T23:39:39.639Z,9.80
2022-10-20T23:42:11.763Z,9.78
2022-10-20T23:44:43.762Z,9.76
2022-10-20T23:47:16.479Z,9.69
2022-10-20T23:49:50.787Z,9.70
2022-10-20T23:52:22.827Z,9.64
2022-10-20T23:54:55.066Z,9.66
2022-10-20T23:57:27.054Z,9.62
2022-10-20T23:59:59.147Z,9.58
